31137 VNLK-VNLK
Flight info
| Callsign | 31137 |
|---|---|
| Flight time | N/A |
| Altitude | 10000 |
| Route | VNLK/VNLK |
| Aircraft | SU27/L-L/S |
Departure
| Time | 2026-04-06 16:03 |
|---|---|
| Airport | Tenzing-Hillary Airport (VNLK) |
Arrival
| Time | N/A |
|---|---|
| Airport | Tenzing-Hillary Airport (VNLK) |
| Time | Latitude | Longitude | Altitude | Speed | Heading |
|---|---|---|---|---|---|
| 2026-04-06 15:58 | 27.68770 | 86.73122 | 9461 ft | 39 kts | 239° |
| 2026-04-06 15:59 | 27.68334 | 86.72301 | 9804 ft | 115 kts | 237° |
| 2026-04-06 15:59 | 27.68373 | 86.72351 | 10401 ft | 11 kts | 237° |
| 2026-04-06 15:59 | 27.67866 | 86.71453 | 10744 ft | 29 kts | 57° |
| 2026-04-06 15:59 | 27.67817 | 86.71862 | 8692 ft | 23 kts | 293° |
| 2026-04-06 16:00 | 27.67146 | 86.71139 | 6814 ft | 119 kts | 257° |
| 2026-04-06 16:01 | 27.68769 | 86.73119 | 9460 ft | 0 kts | 240° |
| 2026-04-06 16:01 | 27.68518 | 86.72638 | 9222 ft | 172 kts | 239° |
| 2026-04-06 16:01 | 27.67176 | 86.71645 | 9658 ft | 225 kts | 278° |
| 2026-04-06 16:01 | 27.67700 | 86.71140 | 8539 ft | 90 kts | 4° |
| 2026-04-06 16:02 | 27.68788 | 86.73156 | 9457 ft | 0 kts | 239° |
| 2026-04-06 16:02 | 27.68593 | 86.72785 | 9274 ft | 155 kts | 239° |
| 2026-04-06 16:02 | 27.68138 | 86.72035 | 11004 ft | 49 kts | 66° |
| 2026-04-06 16:03 | 27.68078 | 86.71724 | 8773 ft | 273 kts | 249° |
| 2026-04-06 16:03 | 27.68611 | 86.70540 | 10436 ft | 259 kts | 94° |
| 2026-04-06 16:03 | 27.68793 | 86.73187 | 9634 ft | 410 kts | 39° |
| 2026-04-06 16:03 | 27.68543 | 86.72383 | 12940 ft | 263 kts | 223° |
| 2026-04-06 16:04 | 27.68919 | 86.73184 | 9846 ft | 259 kts | 356° |
| 2026-04-06 16:04 | 27.69438 | 86.74404 | 12962 ft | 232 kts | 207° |
| 2026-04-06 16:04 | 27.68200 | 86.73142 | 10941 ft | 360 kts | 257° |
| 2026-04-06 16:04 | 27.67347 | 86.69630 | 11214 ft | 516 kts | 251° |
| 2026-04-06 16:05 | 27.66994 | 86.70742 | 12801 ft | 379 kts | 71° |
| 2026-04-06 16:05 | 27.69525 | 86.70402 | 11536 ft | 472 kts | 78° |
| 2026-04-06 16:05 | 27.68452 | 86.72795 | 9646 ft | 273 kts | 11° |